< Cyclone 201110 2011 Season Cyclone 201112 >
Cyclone 201111 (Anthony)
General InformationTrack Information on Google MapsDetailed Wind InformationList of All Images || ResourceGoogle EarthGE AnimationAtom FeedGeoJSON
Detalied Best Track (Time Zone = UTC)
Year Month Day Hour Lat. Long. Pressure (hPa) Wind (kt) Class Image Chart
2011 1 23 00 -15.2 148.9 997 30 2 Image --
2011 1 23 06 -15.6 151.0 990 40 3 Image --
2011 1 23 12 -16.3 153.2 990 45 3 Image --
2011 1 23 18 -16.8 155.2 993 35 3 Image --
2011 1 24 00 -17.3 156.3 998 30 2 Image --
2011 1 24 06 -18.7 158.5 1002 25 2 Image --
2011 1 24 12 -18.4 159.8 1002 25 2 Image --
2011 1 24 18 -19.1 160.6 1000 25 2 Image --
2011 1 25 00 -19.4 160.8 998 25 2 Image --
2011 1 25 06 -19.5 160.6 1000 20 2 Image --
2011 1 25 12 -19.4 159.9 1001 25 2 Image --
2011 1 25 18 -19.0 159.7 997 30 2 Image --
2011 1 26 00 -19.0 159.5 996 30 2 Image --
2011 1 26 06 -18.8 158.5 1000 30 2 Image --
2011 1 26 12 -18.5 157.6 1002 30 2 Image --
2011 1 26 18 -18.3 156.6 1003 30 2 Image --
2011 1 27 00 -17.8 155.6 1000 30 2 Image --
2011 1 27 06 -17.5 155.1 1002 25 2 Image --
2011 1 27 12 -16.4 154.4 999 30 2 Image --
2011 1 27 18 -15.8 155.9 992 35 3 Image --
2011 1 28 00 -15.9 155.5 993 35 3 Image --
2011 1 28 06 -15.9 155.2 995 35 3 Image --
2011 1 28 12 -15.4 154.9 1001 30 2 Image --
2011 1 28 18 -15.3 154.6 1000 25 2 Image --
2011 1 29 00 -15.2 154.3 999 25 2 Image --
2011 1 29 06 -15.5 153.7 999 30 2 Image --
2011 1 29 12 -15.7 153.4 998 30 2 Image --
2011 1 29 18 -17.1 152.2 1001 30 2 Image --
2011 1 30 00 -18.2 151.0 999 35 3 Image --
2011 1 30 06 -19.2 149.5 990 45 3 Image --
2011 1 30 12 -19.8 148.2 989 50 4 Image --
2011 1 30 18 -21.3 146.6 1004 25 2 Image --
< Cyclone 201110 2011 Season Cyclone 201112 >

Help